sensor_id;sensor_type;location;lat;lon;timestamp;P1;durP1;ratioP1;P2;durP2;ratioP2
24859;SDS011;12936;52.006;4.350;2024-03-02T00:01:40;1.03;;;0.40;;
24859;SDS011;12936;52.006;4.350;2024-03-02T00:04:10;3.27;;;0.70;;
24859;SDS011;12936;52.006;4.350;2024-03-02T00:07:03;2.97;;;0.60;;
24859;SDS011;12936;52.006;4.350;2024-03-02T00:09:37;0.57;;;0.30;;
24859;SDS011;12936;52.006;4.350;2024-03-02T00:12:28;2.53;;;0.73;;
24859;SDS011;12936;52.006;4.350;2024-03-02T00:18:23;2.23;;;0.50;;
24859;SDS011;12936;52.006;4.350;2024-03-02T00:21:16;1.50;;;0.40;;
24859;SDS011;12936;52.006;4.350;2024-03-02T00:23:47;3.27;;;0.70;;
24859;SDS011;12936;52.006;4.350;2024-03-02T00:26:25;2.70;;;0.70;;
24859;SDS011;12936;52.006;4.350;2024-03-02T00:29:01;2.53;;;0.67;;
24859;SDS011;12936;52.006;4.350;2024-03-02T00:31:36;1.70;;;0.67;;
24859;SDS011;12936;52.006;4.350;2024-03-02T00:34:29;1.93;;;0.70;;
24859;SDS011;12936;52.006;4.350;2024-03-02T00:37:17;2.20;;;0.70;;
24859;SDS011;12936;52.006;4.350;2024-03-02T00:39:48;1.50;;;0.60;;
24859;SDS011;12936;52.006;4.350;2024-03-02T00:42:20;0.93;;;0.50;;
24859;SDS011;12936;52.006;4.350;2024-03-02T00:44:48;2.27;;;0.70;;
24859;SDS011;12936;52.006;4.350;2024-03-02T00:47:38;1.13;;;0.57;;
24859;SDS011;12936;52.006;4.350;2024-03-02T00:50:09;1.67;;;0.80;;
24859;SDS011;12936;52.006;4.350;2024-03-02T00:53:01;1.60;;;0.60;;
24859;SDS011;12936;52.006;4.350;2024-03-02T00:55:46;0.90;;;0.60;;
24859;SDS011;12936;52.006;4.350;2024-03-02T00:58:22;1.47;;;0.67;;
24859;SDS011;12936;52.006;4.350;2024-03-02T01:00:55;0.60;;;0.50;;
24859;SDS011;12936;52.006;4.350;2024-03-02T01:03:34;2.20;;;0.70;;
24859;SDS011;12936;52.006;4.350;2024-03-02T01:06:05;1.30;;;0.90;;
24859;SDS011;12936;52.006;4.350;2024-03-02T01:08:36;1.93;;;0.80;;
24859;SDS011;12936;52.006;4.350;2024-03-02T01:11:28;2.63;;;0.80;;
24859;SDS011;12936;52.006;4.350;2024-03-02T01:14:04;2.53;;;1.00;;
24859;SDS011;12936;52.006;4.350;2024-03-02T01:16:38;1.10;;;0.93;;
24859;SDS011;12936;52.006;4.350;2024-03-02T01:19:10;1.87;;;0.90;;
24859;SDS011;12936;52.006;4.350;2024-03-02T01:21:42;2.13;;;0.80;;
24859;SDS011;12936;52.006;4.350;2024-03-02T01:24:12;1.00;;;0.60;;
24859;SDS011;12936;52.006;4.350;2024-03-02T01:26:40;1.43;;;0.57;;
24859;SDS011;12936;52.006;4.350;2024-03-02T01:29:11;2.53;;;0.70;;
24859;SDS011;12936;52.006;4.350;2024-03-02T01:31:42;1.10;;;0.70;;
24859;SDS011;12936;52.006;4.350;2024-03-02T01:34:12;2.53;;;0.53;;
24859;SDS011;12936;52.006;4.350;2024-03-02T01:36:41;0.70;;;0.40;;
24859;SDS011;12936;52.006;4.350;2024-03-02T01:39:12;0.93;;;0.60;;
24859;SDS011;12936;52.006;4.350;2024-03-02T01:42:04;1.03;;;0.43;;
24859;SDS011;12936;52.006;4.350;2024-03-02T01:44:35;1.23;;;0.30;;
24859;SDS011;12936;52.006;4.350;2024-03-02T01:47:06;1.23;;;0.40;;
24859;SDS011;12936;52.006;4.350;2024-03-02T01:49:39;1.30;;;0.40;;
24859;SDS011;12936;52.006;4.350;2024-03-02T01:52:09;0.87;;;0.43;;
24859;SDS011;12936;52.006;4.350;2024-03-02T01:54:39;1.07;;;0.43;;
24859;SDS011;12936;52.006;4.350;2024-03-02T01:57:09;2.97;;;0.40;;
24859;SDS011;12936;52.006;4.350;2024-03-02T01:59:41;0.30;;;0.30;;
24859;SDS011;12936;52.006;4.350;2024-03-02T02:02:12;1.63;;;0.40;;
24859;SDS011;12936;52.006;4.350;2024-03-02T02:04:41;1.00;;;0.50;;
24859;SDS011;12936;52.006;4.350;2024-03-02T02:07:12;2.67;;;0.50;;
24859;SDS011;12936;52.006;4.350;2024-03-02T02:09:44;0.50;;;0.40;;
24859;SDS011;12936;52.006;4.350;2024-03-02T02:12:12;4.37;;;1.40;;
24859;SDS011;12936;52.006;4.350;2024-03-02T02:14:48;2.67;;;0.77;;
24859;SDS011;12936;52.006;4.350;2024-03-02T02:17:21;0.53;;;0.50;;
24859;SDS011;12936;52.006;4.350;2024-03-02T02:19:53;2.20;;;0.80;;
24859;SDS011;12936;52.006;4.350;2024-03-02T02:22:27;1.77;;;0.77;;
24859;SDS011;12936;52.006;4.350;2024-03-02T02:25:00;1.20;;;0.87;;
24859;SDS011;12936;52.006;4.350;2024-03-02T02:28:10;1.23;;;1.07;;
24859;SDS011;12936;52.006;4.350;2024-03-02T02:30:44;2.80;;;1.50;;
24859;SDS011;12936;52.006;4.350;2024-03-02T02:33:12;3.03;;;1.70;;
24859;SDS011;12936;52.006;4.350;2024-03-02T02:35:49;2.20;;;1.37;;
24859;SDS011;12936;52.006;4.350;2024-03-02T02:38:22;3.57;;;1.43;;
24859;SDS011;12936;52.006;4.350;2024-03-02T02:41:14;2.67;;;1.80;;
24859;SDS011;12936;52.006;4.350;2024-03-02T02:43:42;2.20;;;1.23;;
24859;SDS011;12936;52.006;4.350;2024-03-02T02:46:11;2.33;;;1.70;;
24859;SDS011;12936;52.006;4.350;2024-03-02T02:48:43;2.73;;;1.40;;
24859;SDS011;12936;52.006;4.350;2024-03-02T02:51:12;4.07;;;1.43;;
24859;SDS011;12936;52.006;4.350;2024-03-02T02:53:41;2.50;;;1.40;;
24859;SDS011;12936;52.006;4.350;2024-03-02T02:56:11;2.70;;;1.43;;
24859;SDS011;12936;52.006;4.350;2024-03-02T02:58:40;2.80;;;1.20;;
24859;SDS011;12936;52.006;4.350;2024-03-02T03:01:09;3.07;;;1.50;;
24859;SDS011;12936;52.006;4.350;2024-03-02T03:03:39;2.80;;;1.30;;
24859;SDS011;12936;52.006;4.350;2024-03-02T03:06:09;1.63;;;1.23;;
24859;SDS011;12936;52.006;4.350;2024-03-02T03:09:03;1.30;;;1.20;;
24859;SDS011;12936;52.006;4.350;2024-03-02T03:11:38;2.30;;;1.60;;
24859;SDS011;12936;52.006;4.350;2024-03-02T03:14:07;3.40;;;1.53;;
24859;SDS011;12936;52.006;4.350;2024-03-02T03:16:40;2.37;;;1.17;;
24859;SDS011;12936;52.006;4.350;2024-03-02T03:19:09;1.93;;;1.30;;
24859;SDS011;12936;52.006;4.350;2024-03-02T03:21:38;2.10;;;1.33;;
24859;SDS011;12936;52.006;4.350;2024-03-02T03:24:12;1.73;;;1.30;;
24859;SDS011;12936;52.006;4.350;2024-03-02T03:26:41;3.00;;;1.40;;
24859;SDS011;12936;52.006;4.350;2024-03-02T03:29:31;1.63;;;1.23;;
24859;SDS011;12936;52.006;4.350;2024-03-02T03:32:02;3.07;;;1.50;;
24859;SDS011;12936;52.006;4.350;2024-03-02T03:35:02;3.37;;;1.67;;
24859;SDS011;12936;52.006;4.350;2024-03-02T03:37:37;2.83;;;1.60;;
24859;SDS011;12936;52.006;4.350;2024-03-02T03:40:07;2.57;;;1.70;;
24859;SDS011;12936;52.006;4.350;2024-03-02T03:42:58;4.00;;;1.60;;
24859;SDS011;12936;52.006;4.350;2024-03-02T03:45:31;2.93;;;1.80;;
24859;SDS011;12936;52.006;4.350;2024-03-02T03:48:02;3.03;;;1.60;;
24859;SDS011;12936;52.006;4.350;2024-03-02T03:50:53;3.40;;;1.40;;
24859;SDS011;12936;52.006;4.350;2024-03-02T03:53:21;4.90;;;1.60;;
24859;SDS011;12936;52.006;4.350;2024-03-02T03:55:52;1.77;;;1.37;;
24859;SDS011;12936;52.006;4.350;2024-03-02T03:58:20;1.57;;;1.30;;
24859;SDS011;12936;52.006;4.350;2024-03-02T04:00:50;2.57;;;1.60;;
24859;SDS011;12936;52.006;4.350;2024-03-02T04:03:21;4.93;;;1.43;;
24859;SDS011;12936;52.006;4.350;2024-03-02T04:06:01;2.93;;;1.57;;
24859;SDS011;12936;52.006;4.350;2024-03-02T04:08:30;1.60;;;1.23;;
24859;SDS011;12936;52.006;4.350;2024-03-02T04:11:02;3.53;;;1.57;;
24859;SDS011;12936;52.006;4.350;2024-03-02T04:13:31;5.73;;;1.37;;
24859;SDS011;12936;52.006;4.350;2024-03-02T04:16:07;2.43;;;1.43;;
24859;SDS011;12936;52.006;4.350;2024-03-02T04:18:41;2.73;;;1.43;;
24859;SDS011;12936;52.006;4.350;2024-03-02T04:21:16;4.53;;;1.33;;
24859;SDS011;12936;52.006;4.350;2024-03-02T04:23:45;4.17;;;1.53;;
24859;SDS011;12936;52.006;4.350;2024-03-02T04:26:20;4.07;;;1.50;;
24859;SDS011;12936;52.006;4.350;2024-03-02T04:28:54;4.10;;;1.50;;
24859;SDS011;12936;52.006;4.350;2024-03-02T04:31:22;1.83;;;1.27;;
24859;SDS011;12936;52.006;4.350;2024-03-02T04:33:56;2.27;;;1.17;;
24859;SDS011;12936;52.006;4.350;2024-03-02T04:36:28;1.23;;;0.93;;
24859;SDS011;12936;52.006;4.350;2024-03-02T04:38:57;3.20;;;1.33;;
24859;SDS011;12936;52.006;4.350;2024-03-02T04:41:31;5.00;;;1.43;;
24859;SDS011;12936;52.006;4.350;2024-03-02T04:44:03;6.27;;;1.50;;
24859;SDS011;12936;52.006;4.350;2024-03-02T04:46:45;4.83;;;1.33;;
24859;SDS011;12936;52.006;4.350;2024-03-02T04:49:35;2.57;;;1.43;;
24859;SDS011;12936;52.006;4.350;2024-03-02T04:52:15;4.20;;;1.47;;
24859;SDS011;12936;52.006;4.350;2024-03-02T04:54:48;3.33;;;1.20;;
24859;SDS011;12936;52.006;4.350;2024-03-02T04:57:53;3.10;;;1.50;;
24859;SDS011;12936;52.006;4.350;2024-03-02T05:00:26;3.37;;;1.53;;
24859;SDS011;12936;52.006;4.350;2024-03-02T05:03:19;6.00;;;1.60;;
24859;SDS011;12936;52.006;4.350;2024-03-02T05:05:50;3.17;;;1.37;;
24859;SDS011;12936;52.006;4.350;2024-03-02T05:08:20;3.30;;;1.63;;
24859;SDS011;12936;52.006;4.350;2024-03-02T05:10:48;3.97;;;1.40;;
24859;SDS011;12936;52.006;4.350;2024-03-02T05:13:18;2.83;;;1.07;;
24859;SDS011;12936;52.006;4.350;2024-03-02T05:15:48;3.47;;;1.17;;
24859;SDS011;12936;52.006;4.350;2024-03-02T05:18:17;3.50;;;1.20;;
24859;SDS011;12936;52.006;4.350;2024-03-02T05:20:50;1.83;;;1.10;;
24859;SDS011;12936;52.006;4.350;2024-03-02T05:23:20;2.13;;;1.20;;
24859;SDS011;12936;52.006;4.350;2024-03-02T05:25:50;6.77;;;1.20;;
24859;SDS011;12936;52.006;4.350;2024-03-02T05:28:40;3.90;;;1.30;;
24859;SDS011;12936;52.006;4.350;2024-03-02T05:31:16;2.40;;;1.40;;
24859;SDS011;12936;52.006;4.350;2024-03-02T05:34:06;1.60;;;1.10;;
24859;SDS011;12936;52.006;4.350;2024-03-02T05:36:39;2.80;;;0.67;;
24859;SDS011;12936;52.006;4.350;2024-03-02T05:39:28;2.20;;;1.00;;
24859;SDS011;12936;52.006;4.350;2024-03-02T05:42:40;2.47;;;0.77;;
24859;SDS011;12936;52.006;4.350;2024-03-02T05:45:10;3.00;;;0.70;;
24859;SDS011;12936;52.006;4.350;2024-03-02T05:47:39;1.90;;;1.00;;
24859;SDS011;12936;52.006;4.350;2024-03-02T05:50:08;1.37;;;0.60;;
24859;SDS011;12936;52.006;4.350;2024-03-02T05:52:38;1.97;;;0.83;;
24859;SDS011;12936;52.006;4.350;2024-03-02T05:55:22;1.93;;;0.63;;
24859;SDS011;12936;52.006;4.350;2024-03-02T05:57:54;4.40;;;0.93;;
24859;SDS011;12936;52.006;4.350;2024-03-02T06:00:44;1.20;;;0.67;;
24859;SDS011;12936;52.006;4.350;2024-03-02T06:03:12;3.03;;;0.73;;
24859;SDS011;12936;52.006;4.350;2024-03-02T06:05:42;3.10;;;0.90;;
24859;SDS011;12936;52.006;4.350;2024-03-02T06:08:11;3.50;;;0.67;;
24859;SDS011;12936;52.006;4.350;2024-03-02T06:10:43;2.30;;;0.80;;
24859;SDS011;12936;52.006;4.350;2024-03-02T06:13:13;4.47;;;0.80;;
24859;SDS011;12936;52.006;4.350;2024-03-02T06:15:46;2.50;;;0.77;;
24859;SDS011;12936;52.006;4.350;2024-03-02T06:18:15;2.97;;;0.80;;
24859;SDS011;12936;52.006;4.350;2024-03-02T06:20:46;2.73;;;0.67;;
24859;SDS011;12936;52.006;4.350;2024-03-02T06:23:15;3.07;;;0.87;;
24859;SDS011;12936;52.006;4.350;2024-03-02T06:25:43;4.97;;;1.00;;
24859;SDS011;12936;52.006;4.350;2024-03-02T06:28:11;2.60;;;0.80;;
24859;SDS011;12936;52.006;4.350;2024-03-02T06:30:42;5.23;;;0.97;;
24859;SDS011;12936;52.006;4.350;2024-03-02T06:33:11;3.60;;;1.10;;
24859;SDS011;12936;52.006;4.350;2024-03-02T06:35:40;2.80;;;0.70;;
24859;SDS011;12936;52.006;4.350;2024-03-02T06:38:08;4.87;;;0.80;;
24859;SDS011;12936;52.006;4.350;2024-03-02T06:40:36;1.53;;;0.67;;
24859;SDS011;12936;52.006;4.350;2024-03-02T06:43:06;2.63;;;0.70;;
24859;SDS011;12936;52.006;4.350;2024-03-02T06:45:34;3.17;;;0.80;;
24859;SDS011;12936;52.006;4.350;2024-03-02T06:48:02;0.77;;;0.43;;
24859;SDS011;12936;52.006;4.350;2024-03-02T06:50:32;1.97;;;0.70;;
24859;SDS011;12936;52.006;4.350;2024-03-02T06:53:00;1.90;;;0.70;;
24859;SDS011;12936;52.006;4.350;2024-03-02T06:55:30;3.07;;;0.83;;
24859;SDS011;12936;52.006;4.350;2024-03-02T06:57:58;3.53;;;0.63;;
24859;SDS011;12936;52.006;4.350;2024-03-02T07:00:27;2.40;;;0.90;;
24859;SDS011;12936;52.006;4.350;2024-03-02T07:02:55;3.03;;;0.70;;
24859;SDS011;12936;52.006;4.350;2024-03-02T07:05:23;2.70;;;0.80;;
24859;SDS011;12936;52.006;4.350;2024-03-02T07:07:53;3.37;;;0.80;;
24859;SDS011;12936;52.006;4.350;2024-03-02T07:10:21;2.10;;;0.70;;
24859;SDS011;12936;52.006;4.350;2024-03-02T07:12:49;1.70;;;0.90;;
24859;SDS011;12936;52.006;4.350;2024-03-02T07:15:18;3.67;;;0.80;;
24859;SDS011;12936;52.006;4.350;2024-03-02T07:17:56;1.80;;;0.90;;
24859;SDS011;12936;52.006;4.350;2024-03-02T07:20:24;1.87;;;0.77;;
24859;SDS011;12936;52.006;4.350;2024-03-02T07:22:54;2.97;;;0.90;;
24859;SDS011;12936;52.006;4.350;2024-03-02T07:25:22;3.03;;;0.90;;
24859;SDS011;12936;52.006;4.350;2024-03-02T07:27:53;2.87;;;0.80;;
24859;SDS011;12936;52.006;4.350;2024-03-02T07:30:22;1.30;;;0.83;;
24859;SDS011;12936;52.006;4.350;2024-03-02T07:32:51;2.77;;;0.77;;
24859;SDS011;12936;52.006;4.350;2024-03-02T07:35:19;1.80;;;0.83;;
24859;SDS011;12936;52.006;4.350;2024-03-02T07:37:48;3.50;;;0.90;;
24859;SDS011;12936;52.006;4.350;2024-03-02T07:40:18;1.77;;;0.70;;
24859;SDS011;12936;52.006;4.350;2024-03-02T07:42:46;4.20;;;1.07;;
24859;SDS011;12936;52.006;4.350;2024-03-02T07:45:15;4.00;;;0.97;;
24859;SDS011;12936;52.006;4.350;2024-03-02T07:47:43;2.43;;;0.80;;
24859;SDS011;12936;52.006;4.350;2024-03-02T07:50:12;3.20;;;0.80;;
24859;SDS011;12936;52.006;4.350;2024-03-02T07:52:40;4.57;;;0.70;;
24859;SDS011;12936;52.006;4.350;2024-03-02T07:55:08;2.57;;;0.87;;
24859;SDS011;12936;52.006;4.350;2024-03-02T07:57:38;1.97;;;0.73;;
24859;SDS011;12936;52.006;4.350;2024-03-02T08:00:07;7.37;;;1.00;;
24859;SDS011;12936;52.006;4.350;2024-03-02T08:02:36;2.67;;;1.00;;
24859;SDS011;12936;52.006;4.350;2024-03-02T08:05:04;3.70;;;0.90;;
24859;SDS011;12936;52.006;4.350;2024-03-02T08:07:33;5.57;;;1.20;;
24859;SDS011;12936;52.006;4.350;2024-03-02T08:10:02;3.10;;;1.00;;
24859;SDS011;12936;52.006;4.350;2024-03-02T08:12:30;8.07;;;1.40;;
24859;SDS011;12936;52.006;4.350;2024-03-02T08:15:00;3.03;;;0.90;;
24859;SDS011;12936;52.006;4.350;2024-03-02T08:17:28;5.83;;;1.20;;
24859;SDS011;12936;52.006;4.350;2024-03-02T08:19:58;3.63;;;0.97;;
24859;SDS011;12936;52.006;4.350;2024-03-02T08:22:29;5.60;;;0.87;;
24859;SDS011;12936;52.006;4.350;2024-03-02T08:25:00;2.93;;;0.80;;
24859;SDS011;12936;52.006;4.350;2024-03-02T08:27:30;3.80;;;0.90;;
24859;SDS011;12936;52.006;4.350;2024-03-02T08:30:01;2.77;;;1.00;;
24859;SDS011;12936;52.006;4.350;2024-03-02T08:32:33;1.63;;;0.80;;
24859;SDS011;12936;52.006;4.350;2024-03-02T08:35:01;4.50;;;0.97;;
24859;SDS011;12936;52.006;4.350;2024-03-02T08:37:29;6.17;;;1.17;;
24859;SDS011;12936;52.006;4.350;2024-03-02T08:39:57;7.60;;;1.30;;
24859;SDS011;12936;52.006;4.350;2024-03-02T08:42:26;3.27;;;1.00;;
24859;SDS011;12936;52.006;4.350;2024-03-02T08:44:54;4.13;;;1.10;;
24859;SDS011;12936;52.006;4.350;2024-03-02T08:47:24;2.93;;;0.80;;
24859;SDS011;12936;52.006;4.350;2024-03-02T08:49:52;3.53;;;0.80;;
24859;SDS011;12936;52.006;4.350;2024-03-02T08:52:24;4.63;;;0.90;;
24859;SDS011;12936;52.006;4.350;2024-03-02T08:54:52;2.97;;;0.80;;
24859;SDS011;12936;52.006;4.350;2024-03-02T08:57:20;6.03;;;1.20;;
24859;SDS011;12936;52.006;4.350;2024-03-02T08:59:50;6.40;;;1.20;;
24859;SDS011;12936;52.006;4.350;2024-03-02T09:02:18;3.47;;;1.00;;
24859;SDS011;12936;52.006;4.350;2024-03-02T09:04:48;4.03;;;0.80;;
24859;SDS011;12936;52.006;4.350;2024-03-02T09:07:17;3.67;;;1.17;;
24859;SDS011;12936;52.006;4.350;2024-03-02T09:09:46;2.47;;;0.70;;
24859;SDS011;12936;52.006;4.350;2024-03-02T09:12:14;5.87;;;1.20;;
24859;SDS011;12936;52.006;4.350;2024-03-02T09:14:42;3.83;;;0.90;;
24859;SDS011;12936;52.006;4.350;2024-03-02T09:17:11;3.30;;;0.80;;
24859;SDS011;12936;52.006;4.350;2024-03-02T09:19:39;5.87;;;1.23;;
24859;SDS011;12936;52.006;4.350;2024-03-02T09:22:09;2.80;;;1.10;;
24859;SDS011;12936;52.006;4.350;2024-03-02T09:24:38;3.37;;;1.17;;
24859;SDS011;12936;52.006;4.350;2024-03-02T09:27:07;9.07;;;1.40;;
24859;SDS011;12936;52.006;4.350;2024-03-02T09:29:35;4.73;;;1.07;;
24859;SDS011;12936;52.006;4.350;2024-03-02T09:32:04;4.93;;;1.07;;
24859;SDS011;12936;52.006;4.350;2024-03-02T09:34:34;6.13;;;1.17;;
24859;SDS011;12936;52.006;4.350;2024-03-02T09:37:05;6.47;;;1.07;;
24859;SDS011;12936;52.006;4.350;2024-03-02T09:39:36;4.70;;;1.00;;
24859;SDS011;12936;52.006;4.350;2024-03-02T09:42:06;3.13;;;0.80;;
24859;SDS011;12936;52.006;4.350;2024-03-02T09:44:37;5.57;;;1.27;;
24859;SDS011;12936;52.006;4.350;2024-03-02T09:47:06;7.90;;;0.90;;
24859;SDS011;12936;52.006;4.350;2024-03-02T09:49:36;6.33;;;1.10;;
24859;SDS011;12936;52.006;4.350;2024-03-02T09:52:05;5.97;;;0.93;;
24859;SDS011;12936;52.006;4.350;2024-03-02T09:54:39;5.60;;;1.10;;
24859;SDS011;12936;52.006;4.350;2024-03-02T09:57:08;4.13;;;0.93;;
24859;SDS011;12936;52.006;4.350;2024-03-02T09:59:40;5.03;;;0.90;;
24859;SDS011;12936;52.006;4.350;2024-03-02T10:02:14;7.27;;;1.27;;
24859;SDS011;12936;52.006;4.350;2024-03-02T10:04:42;5.17;;;1.10;;
24859;SDS011;12936;52.006;4.350;2024-03-02T10:07:12;9.13;;;1.50;;
24859;SDS011;12936;52.006;4.350;2024-03-02T10:09:44;4.33;;;0.97;;
24859;SDS011;12936;52.006;4.350;2024-03-02T10:12:14;7.10;;;0.90;;
24859;SDS011;12936;52.006;4.350;2024-03-02T10:14:43;4.07;;;0.90;;
24859;SDS011;12936;52.006;4.350;2024-03-02T10:17:16;5.10;;;0.83;;
24859;SDS011;12936;52.006;4.350;2024-03-02T10:19:45;6.93;;;1.10;;
24859;SDS011;12936;52.006;4.350;2024-03-02T10:22:14;8.43;;;1.30;;
24859;SDS011;12936;52.006;4.350;2024-03-02T10:24:44;5.63;;;0.93;;
24859;SDS011;12936;52.006;4.350;2024-03-02T10:27:17;4.13;;;1.37;;
24859;SDS011;12936;52.006;4.350;2024-03-02T10:29:55;8.73;;;1.30;;
24859;SDS011;12936;52.006;4.350;2024-03-02T10:32:23;5.73;;;1.33;;
24859;SDS011;12936;52.006;4.350;2024-03-02T10:34:53;4.43;;;1.10;;
24859;SDS011;12936;52.006;4.350;2024-03-02T10:37:22;5.47;;;1.40;;
24859;SDS011;12936;52.006;4.350;2024-03-02T10:39:53;8.77;;;1.47;;
24859;SDS011;12936;52.006;4.350;2024-03-02T10:42:22;5.43;;;1.20;;
24859;SDS011;12936;52.006;4.350;2024-03-02T10:44:52;8.63;;;1.60;;
24859;SDS011;12936;52.006;4.350;2024-03-02T10:47:23;5.10;;;1.13;;
24859;SDS011;12936;52.006;4.350;2024-03-02T10:49:54;3.50;;;1.10;;
24859;SDS011;12936;52.006;4.350;2024-03-02T10:52:28;7.57;;;1.00;;
24859;SDS011;12936;52.006;4.350;2024-03-02T10:54:59;9.57;;;1.73;;
24859;SDS011;12936;52.006;4.350;2024-03-02T10:57:33;5.93;;;1.10;;
24859;SDS011;12936;52.006;4.350;2024-03-02T11:00:11;4.77;;;0.93;;
24859;SDS011;12936;52.006;4.350;2024-03-02T11:02:43;6.13;;;1.20;;
24859;SDS011;12936;52.006;4.350;2024-03-02T11:05:20;8.43;;;1.30;;
24859;SDS011;12936;52.006;4.350;2024-03-02T11:07:56;6.23;;;1.30;;
24859;SDS011;12936;52.006;4.350;2024-03-02T11:10:35;5.47;;;1.40;;
24859;SDS011;12936;52.006;4.350;2024-03-02T11:13:09;6.53;;;0.80;;
24859;SDS011;12936;52.006;4.350;2024-03-02T11:15:44;4.50;;;1.00;;
24859;SDS011;12936;52.006;4.350;2024-03-02T11:18:13;5.90;;;1.10;;
24859;SDS011;12936;52.006;4.350;2024-03-02T11:20:43;6.13;;;1.30;;
24859;SDS011;12936;52.006;4.350;2024-03-02T11:23:15;7.70;;;0.90;;
24859;SDS011;12936;52.006;4.350;2024-03-02T11:25:45;6.90;;;1.33;;
24859;SDS011;12936;52.006;4.350;2024-03-02T11:28:13;7.23;;;1.87;;
24859;SDS011;12936;52.006;4.350;2024-03-02T11:30:48;7.40;;;1.23;;
24859;SDS011;12936;52.006;4.350;2024-03-02T11:33:26;6.57;;;1.07;;
24859;SDS011;12936;52.006;4.350;2024-03-02T11:35:59;6.87;;;1.30;;
24859;SDS011;12936;52.006;4.350;2024-03-02T11:38:31;7.97;;;1.17;;
24859;SDS011;12936;52.006;4.350;2024-03-02T11:41:05;6.27;;;1.00;;
24859;SDS011;12936;52.006;4.350;2024-03-02T11:43:36;4.53;;;1.00;;
24859;SDS011;12936;52.006;4.350;2024-03-02T11:46:10;4.53;;;0.87;;
24859;SDS011;12936;52.006;4.350;2024-03-02T11:48:41;5.13;;;1.33;;
24859;SDS011;12936;52.006;4.350;2024-03-02T11:51:10;3.97;;;1.20;;
24859;SDS011;12936;52.006;4.350;2024-03-02T11:53:39;6.87;;;1.37;;
24859;SDS011;12936;52.006;4.350;2024-03-02T11:56:10;4.50;;;1.67;;
24859;SDS011;12936;52.006;4.350;2024-03-02T11:59:01;7.00;;;1.27;;
24859;SDS011;12936;52.006;4.350;2024-03-02T12:01:30;6.33;;;1.10;;
24859;SDS011;12936;52.006;4.350;2024-03-02T12:04:03;3.37;;;0.80;;
24859;SDS011;12936;52.006;4.350;2024-03-02T12:06:35;7.57;;;0.93;;
24859;SDS011;12936;52.006;4.350;2024-03-02T12:09:04;4.23;;;0.90;;
24859;SDS011;12936;52.006;4.350;2024-03-02T12:11:37;7.27;;;1.07;;
24859;SDS011;12936;52.006;4.350;2024-03-02T12:14:10;2.60;;;0.97;;
24859;SDS011;12936;52.006;4.350;2024-03-02T12:16:43;5.83;;;1.10;;
24859;SDS011;12936;52.006;4.350;2024-03-02T12:19:12;2.63;;;0.80;;
24859;SDS011;12936;52.006;4.350;2024-03-02T12:21:43;4.53;;;1.20;;
24859;SDS011;12936;52.006;4.350;2024-03-02T12:24:12;5.83;;;1.20;;
24859;SDS011;12936;52.006;4.350;2024-03-02T12:26:44;7.30;;;1.20;;
24859;SDS011;12936;52.006;4.350;2024-03-02T12:29:16;5.07;;;1.20;;
24859;SDS011;12936;52.006;4.350;2024-03-02T12:31:47;5.93;;;0.97;;
24859;SDS011;12936;52.006;4.350;2024-03-02T12:34:16;2.87;;;0.80;;
24859;SDS011;12936;52.006;4.350;2024-03-02T12:36:45;5.53;;;1.13;;
24859;SDS011;12936;52.006;4.350;2024-03-02T12:39:16;5.83;;;1.53;;
24859;SDS011;12936;52.006;4.350;2024-03-02T12:41:45;5.77;;;1.13;;
24859;SDS011;12936;52.006;4.350;2024-03-02T12:44:17;3.33;;;1.20;;
24859;SDS011;12936;52.006;4.350;2024-03-02T12:46:45;5.37;;;1.13;;
24859;SDS011;12936;52.006;4.350;2024-03-02T12:49:15;6.47;;;1.27;;
24859;SDS011;12936;52.006;4.350;2024-03-02T12:51:43;5.30;;;1.00;;
24859;SDS011;12936;52.006;4.350;2024-03-02T12:54:13;7.10;;;1.17;;
24859;SDS011;12936;52.006;4.350;2024-03-02T12:56:42;5.87;;;0.80;;
24859;SDS011;12936;52.006;4.350;2024-03-02T12:59:18;4.30;;;1.07;;
24859;SDS011;12936;52.006;4.350;2024-03-02T13:01:50;9.27;;;1.20;;
24859;SDS011;12936;52.006;4.350;2024-03-02T13:04:21;7.17;;;1.20;;
24859;SDS011;12936;52.006;4.350;2024-03-02T13:06:52;4.90;;;1.10;;
24859;SDS011;12936;52.006;4.350;2024-03-02T13:09:20;5.33;;;1.00;;
24859;SDS011;12936;52.006;4.350;2024-03-02T13:11:51;9.63;;;1.30;;
24859;SDS011;12936;52.006;4.350;2024-03-02T13:14:22;4.37;;;2.07;;
24859;SDS011;12936;52.006;4.350;2024-03-02T13:16:51;6.63;;;1.13;;
24859;SDS011;12936;52.006;4.350;2024-03-02T13:19:19;5.13;;;1.00;;
24859;SDS011;12936;52.006;4.350;2024-03-02T13:21:47;5.03;;;0.97;;
24859;SDS011;12936;52.006;4.350;2024-03-02T13:24:17;6.23;;;1.20;;
24859;SDS011;12936;52.006;4.350;2024-03-02T13:26:46;5.83;;;1.10;;
24859;SDS011;12936;52.006;4.350;2024-03-02T13:29:14;9.43;;;1.23;;
24859;SDS011;12936;52.006;4.350;2024-03-02T13:31:43;5.70;;;1.23;;
24859;SDS011;12936;52.006;4.350;2024-03-02T13:34:12;9.40;;;1.57;;
24859;SDS011;12936;52.006;4.350;2024-03-02T13:36:40;7.17;;;1.00;;
24859;SDS011;12936;52.006;4.350;2024-03-02T13:39:08;3.57;;;1.20;;
24859;SDS011;12936;52.006;4.350;2024-03-02T13:41:37;3.73;;;1.03;;
24859;SDS011;12936;52.006;4.350;2024-03-02T13:44:05;6.00;;;1.10;;
24859;SDS011;12936;52.006;4.350;2024-03-02T13:46:33;6.20;;;1.07;;
24859;SDS011;12936;52.006;4.350;2024-03-02T13:49:02;4.07;;;1.03;;
24859;SDS011;12936;52.006;4.350;2024-03-02T13:51:31;7.07;;;1.13;;
24859;SDS011;12936;52.006;4.350;2024-03-02T13:53:59;6.40;;;1.60;;
24859;SDS011;12936;52.006;4.350;2024-03-02T13:56:29;4.93;;;0.87;;
24859;SDS011;12936;52.006;4.350;2024-03-02T13:58:58;5.32;;;0.90;;
24859;SDS011;12936;52.006;4.350;2024-03-02T14:01:26;3.40;;;0.90;;
24859;SDS011;12936;52.006;4.350;2024-03-02T14:03:55;5.73;;;1.13;;
24859;SDS011;12936;52.006;4.350;2024-03-02T14:06:24;5.93;;;0.90;;
24859;SDS011;12936;52.006;4.350;2024-03-02T14:08:53;3.67;;;0.80;;
24859;SDS011;12936;52.006;4.350;2024-03-02T14:11:21;2.17;;;0.60;;
24859;SDS011;12936;52.006;4.350;2024-03-02T14:13:49;5.07;;;1.03;;
24859;SDS011;12936;52.006;4.350;2024-03-02T14:16:20;4.63;;;1.00;;
24859;SDS011;12936;52.006;4.350;2024-03-02T14:18:48;3.77;;;0.83;;
24859;SDS011;12936;52.006;4.350;2024-03-02T14:21:17;4.60;;;1.08;;
24859;SDS011;12936;52.006;4.350;2024-03-02T14:23:46;4.68;;;0.93;;
24859;SDS011;12936;52.006;4.350;2024-03-02T14:26:14;3.37;;;0.77;;
24859;SDS011;12936;52.006;4.350;2024-03-02T14:28:43;5.20;;;0.87;;
24859;SDS011;12936;52.006;4.350;2024-03-02T14:31:16;4.07;;;0.97;;
24859;SDS011;12936;52.006;4.350;2024-03-02T14:33:46;6.50;;;1.07;;
24859;SDS011;12936;52.006;4.350;2024-03-02T14:36:14;2.17;;;0.73;;
24859;SDS011;12936;52.006;4.350;2024-03-02T14:38:43;4.80;;;0.73;;
24859;SDS011;12936;52.006;4.350;2024-03-02T14:41:13;3.65;;;0.73;;
24859;SDS011;12936;52.006;4.350;2024-03-02T14:43:42;4.97;;;1.00;;
24859;SDS011;12936;52.006;4.350;2024-03-02T14:46:11;5.60;;;1.00;;
24859;SDS011;12936;52.006;4.350;2024-03-02T14:48:39;6.13;;;1.50;;
24859;SDS011;12936;52.006;4.350;2024-03-02T14:51:08;4.27;;;0.80;;
24859;SDS011;12936;52.006;4.350;2024-03-02T14:53:36;4.10;;;0.97;;
24859;SDS011;12936;52.006;4.350;2024-03-02T14:56:05;4.63;;;0.80;;
24859;SDS011;12936;52.006;4.350;2024-03-02T14:58:35;3.30;;;1.10;;
24859;SDS011;12936;52.006;4.350;2024-03-02T15:01:04;5.60;;;1.25;;
24859;SDS011;12936;52.006;4.350;2024-03-02T15:03:33;3.93;;;0.97;;
24859;SDS011;12936;52.006;4.350;2024-03-02T15:06:01;2.63;;;0.70;;
24859;SDS011;12936;52.006;4.350;2024-03-02T15:08:30;6.13;;;0.90;;
24859;SDS011;12936;52.006;4.350;2024-03-02T15:10:58;6.90;;;1.10;;
24859;SDS011;12936;52.006;4.350;2024-03-02T15:13:27;3.17;;;0.90;;
24859;SDS011;12936;52.006;4.350;2024-03-02T15:15:57;7.35;;;1.08;;
24859;SDS011;12936;52.006;4.350;2024-03-02T15:18:25;3.50;;;0.90;;
24859;SDS011;12936;52.006;4.350;2024-03-02T15:20:54;5.30;;;0.80;;